sensor_id;sensor_type;location;lat;lon;timestamp;temperature;humidity
5578;DHT22;2811;51.900;10.734;2023-09-07T00:00:29;18.20;99.90
5578;DHT22;2811;51.900;10.734;2023-09-07T00:02:57;18.10;99.90
5578;DHT22;2811;51.900;10.734;2023-09-07T00:05:25;17.90;99.90
5578;DHT22;2811;51.900;10.734;2023-09-07T00:07:52;18.00;99.90
5578;DHT22;2811;51.900;10.734;2023-09-07T00:10:19;18.10;99.90
5578;DHT22;2811;51.900;10.734;2023-09-07T00:12:45;18.20;99.90
5578;DHT22;2811;51.900;10.734;2023-09-07T00:15:12;18.20;99.90
5578;DHT22;2811;51.900;10.734;2023-09-07T00:17:39;18.30;99.90
5578;DHT22;2811;51.900;10.734;2023-09-07T00:20:08;18.40;99.90
5578;DHT22;2811;51.900;10.734;2023-09-07T00:22:37;18.30;99.90
5578;DHT22;2811;51.900;10.734;2023-09-07T00:25:04;18.10;99.90
5578;DHT22;2811;51.900;10.734;2023-09-07T00:27:32;17.80;99.90
5578;DHT22;2811;51.900;10.734;2023-09-07T00:29:59;17.70;99.90
5578;DHT22;2811;51.900;10.734;2023-09-07T00:32:26;17.50;99.90
5578;DHT22;2811;51.900;10.734;2023-09-07T00:34:52;17.40;99.90
5578;DHT22;2811;51.900;10.734;2023-09-07T00:37:20;17.40;99.90
5578;DHT22;2811;51.900;10.734;2023-09-07T00:39:48;17.50;99.90
5578;DHT22;2811;51.900;10.734;2023-09-07T00:42:14;17.60;99.90
5578;DHT22;2811;51.900;10.734;2023-09-07T00:44:41;17.60;99.90
5578;DHT22;2811;51.900;10.734;2023-09-07T00:47:08;17.50;99.90
5578;DHT22;2811;51.900;10.734;2023-09-07T00:49:35;17.50;99.90
5578;DHT22;2811;51.900;10.734;2023-09-07T00:52:02;17.40;99.90
5578;DHT22;2811;51.900;10.734;2023-09-07T00:54:31;17.40;99.90
5578;DHT22;2811;51.900;10.734;2023-09-07T00:56:57;17.40;99.90
5578;DHT22;2811;51.900;10.734;2023-09-07T00:59:24;17.40;99.90
5578;DHT22;2811;51.900;10.734;2023-09-07T01:01:51;17.50;99.90
5578;DHT22;2811;51.900;10.734;2023-09-07T01:04:18;17.40;99.90
5578;DHT22;2811;51.900;10.734;2023-09-07T01:06:52;17.40;99.90
5578;DHT22;2811;51.900;10.734;2023-09-07T01:09:21;17.40;99.90
5578;DHT22;2811;51.900;10.734;2023-09-07T01:11:51;17.50;99.90
5578;DHT22;2811;51.900;10.734;2023-09-07T01:14:18;17.50;99.90
5578;DHT22;2811;51.900;10.734;2023-09-07T01:16:45;17.50;99.90
5578;DHT22;2811;51.900;10.734;2023-09-07T01:19:12;17.40;99.90
5578;DHT22;2811;51.900;10.734;2023-09-07T01:21:40;17.30;99.90
5578;DHT22;2811;51.900;10.734;2023-09-07T01:24:08;17.30;99.90
5578;DHT22;2811;51.900;10.734;2023-09-07T01:26:35;17.30;99.90
5578;DHT22;2811;51.900;10.734;2023-09-07T01:29:04;17.30;99.90
5578;DHT22;2811;51.900;10.734;2023-09-07T01:31:34;17.30;99.90
5578;DHT22;2811;51.900;10.734;2023-09-07T01:34:01;17.30;99.90
5578;DHT22;2811;51.900;10.734;2023-09-07T01:36:28;17.40;99.90
5578;DHT22;2811;51.900;10.734;2023-09-07T01:38:56;17.60;99.90
5578;DHT22;2811;51.900;10.734;2023-09-07T01:41:23;17.50;99.90
5578;DHT22;2811;51.900;10.734;2023-09-07T01:43:50;17.50;99.90
5578;DHT22;2811;51.900;10.734;2023-09-07T01:46:16;17.40;99.90
5578;DHT22;2811;51.900;10.734;2023-09-07T01:48:43;17.40;99.90
5578;DHT22;2811;51.900;10.734;2023-09-07T01:51:10;17.40;99.90
5578;DHT22;2811;51.900;10.734;2023-09-07T01:53:37;17.40;99.90
5578;DHT22;2811;51.900;10.734;2023-09-07T01:56:05;17.50;99.90
5578;DHT22;2811;51.900;10.734;2023-09-07T01:58:33;17.60;99.90
5578;DHT22;2811;51.900;10.734;2023-09-07T02:01:00;17.40;99.90
5578;DHT22;2811;51.900;10.734;2023-09-07T02:03:27;17.60;99.90
5578;DHT22;2811;51.900;10.734;2023-09-07T02:05:53;17.40;99.90
5578;DHT22;2811;51.900;10.734;2023-09-07T02:08:20;17.30;99.90
5578;DHT22;2811;51.900;10.734;2023-09-07T02:10:46;17.20;99.90
5578;DHT22;2811;51.900;10.734;2023-09-07T02:13:14;17.30;99.90
5578;DHT22;2811;51.900;10.734;2023-09-07T02:15:41;17.40;99.90
5578;DHT22;2811;51.900;10.734;2023-09-07T02:18:07;17.10;99.90
5578;DHT22;2811;51.900;10.734;2023-09-07T02:20:34;17.60;99.90
5578;DHT22;2811;51.900;10.734;2023-09-07T02:23:01;17.60;99.90
5578;DHT22;2811;51.900;10.734;2023-09-07T02:25:28;17.60;99.90
5578;DHT22;2811;51.900;10.734;2023-09-07T02:27:56;17.60;99.90
5578;DHT22;2811;51.900;10.734;2023-09-07T02:30:24;17.60;99.90
5578;DHT22;2811;51.900;10.734;2023-09-07T02:32:51;17.60;99.90
5578;DHT22;2811;51.900;10.734;2023-09-07T02:35:18;17.70;99.90
5578;DHT22;2811;51.900;10.734;2023-09-07T02:37:45;17.70;99.90
5578;DHT22;2811;51.900;10.734;2023-09-07T02:40:12;17.60;99.90
5578;DHT22;2811;51.900;10.734;2023-09-07T02:42:41;17.60;99.90
5578;DHT22;2811;51.900;10.734;2023-09-07T02:45:11;17.50;99.90
5578;DHT22;2811;51.900;10.734;2023-09-07T02:47:39;17.50;99.90
5578;DHT22;2811;51.900;10.734;2023-09-07T02:50:07;17.60;99.90
5578;DHT22;2811;51.900;10.734;2023-09-07T02:52:34;17.60;99.90
5578;DHT22;2811;51.900;10.734;2023-09-07T02:55:00;17.60;99.90
5578;DHT22;2811;51.900;10.734;2023-09-07T02:57:28;17.60;99.90
5578;DHT22;2811;51.900;10.734;2023-09-07T02:59:55;17.70;99.90
5578;DHT22;2811;51.900;10.734;2023-09-07T03:02:21;17.60;99.90
5578;DHT22;2811;51.900;10.734;2023-09-07T03:04:53;17.70;99.90
5578;DHT22;2811;51.900;10.734;2023-09-07T03:07:20;17.60;99.90
5578;DHT22;2811;51.900;10.734;2023-09-07T03:09:46;17.50;99.90
5578;DHT22;2811;51.900;10.734;2023-09-07T03:12:13;17.50;99.90
5578;DHT22;2811;51.900;10.734;2023-09-07T03:14:43;17.50;99.90
5578;DHT22;2811;51.900;10.734;2023-09-07T03:17:11;17.40;99.90
5578;DHT22;2811;51.900;10.734;2023-09-07T03:19:38;17.30;99.90
5578;DHT22;2811;51.900;10.734;2023-09-07T03:22:06;17.10;99.90
5578;DHT22;2811;51.900;10.734;2023-09-07T03:24:33;17.00;99.90
5578;DHT22;2811;51.900;10.734;2023-09-07T03:27:00;17.30;99.90
5578;DHT22;2811;51.900;10.734;2023-09-07T03:29:29;17.00;99.90
5578;DHT22;2811;51.900;10.734;2023-09-07T03:31:58;17.00;99.90
5578;DHT22;2811;51.900;10.734;2023-09-07T03:34:25;17.00;99.90
5578;DHT22;2811;51.900;10.734;2023-09-07T03:36:52;17.00;99.90
5578;DHT22;2811;51.900;10.734;2023-09-07T03:39:20;17.10;99.90
5578;DHT22;2811;51.900;10.734;2023-09-07T03:41:47;17.00;99.90
5578;DHT22;2811;51.900;10.734;2023-09-07T03:44:14;17.00;99.90
5578;DHT22;2811;51.900;10.734;2023-09-07T03:46:41;16.90;99.90
5578;DHT22;2811;51.900;10.734;2023-09-07T03:49:08;16.80;99.90
5578;DHT22;2811;51.900;10.734;2023-09-07T03:51:35;16.70;99.90
5578;DHT22;2811;51.900;10.734;2023-09-07T03:54:01;16.70;99.90
5578;DHT22;2811;51.900;10.734;2023-09-07T03:56:29;16.70;99.90
5578;DHT22;2811;51.900;10.734;2023-09-07T03:58:56;16.70;99.90
5578;DHT22;2811;51.900;10.734;2023-09-07T04:01:23;16.70;99.90
5578;DHT22;2811;51.900;10.734;2023-09-07T04:03:50;16.60;99.90
5578;DHT22;2811;51.900;10.734;2023-09-07T04:06:17;16.50;99.90
5578;DHT22;2811;51.900;10.734;2023-09-07T04:08:44;16.50;99.90
5578;DHT22;2811;51.900;10.734;2023-09-07T04:11:11;16.60;99.90
5578;DHT22;2811;51.900;10.734;2023-09-07T04:13:39;16.60;99.90
5578;DHT22;2811;51.900;10.734;2023-09-07T04:16:08;16.90;99.90
5578;DHT22;2811;51.900;10.734;2023-09-07T04:18:35;16.60;99.90
5578;DHT22;2811;51.900;10.734;2023-09-07T04:21:05;16.70;99.90
5578;DHT22;2811;51.900;10.734;2023-09-07T04:23:32;16.70;99.90
5578;DHT22;2811;51.900;10.734;2023-09-07T04:26:05;16.70;99.90
5578;DHT22;2811;51.900;10.734;2023-09-07T04:28:32;16.70;99.90
5578;DHT22;2811;51.900;10.734;2023-09-07T04:31:00;16.50;99.90
5578;DHT22;2811;51.900;10.734;2023-09-07T04:33:29;16.50;99.90
5578;DHT22;2811;51.900;10.734;2023-09-07T04:35:56;16.30;99.90
5578;DHT22;2811;51.900;10.734;2023-09-07T04:38:23;16.20;99.90
5578;DHT22;2811;51.900;10.734;2023-09-07T04:40:50;16.20;99.90
5578;DHT22;2811;51.900;10.734;2023-09-07T04:43:16;16.10;99.90
5578;DHT22;2811;51.900;10.734;2023-09-07T04:45:45;15.90;99.90
5578;DHT22;2811;51.900;10.734;2023-09-07T04:48:14;15.90;99.90
5578;DHT22;2811;51.900;10.734;2023-09-07T04:50:41;15.90;99.90
5578;DHT22;2811;51.900;10.734;2023-09-07T04:53:08;15.80;99.90
5578;DHT22;2811;51.900;10.734;2023-09-07T04:55:37;15.80;99.90
5578;DHT22;2811;51.900;10.734;2023-09-07T04:58:04;15.90;99.90
5578;DHT22;2811;51.900;10.734;2023-09-07T05:00:31;15.90;99.90
5578;DHT22;2811;51.900;10.734;2023-09-07T05:02:57;15.80;99.90
5578;DHT22;2811;51.900;10.734;2023-09-07T05:05:25;16.20;99.90
5578;DHT22;2811;51.900;10.734;2023-09-07T05:07:52;16.10;99.90
5578;DHT22;2811;51.900;10.734;2023-09-07T05:10:19;16.20;99.90
5578;DHT22;2811;51.900;10.734;2023-09-07T05:12:46;16.20;99.90
5578;DHT22;2811;51.900;10.734;2023-09-07T05:15:13;16.70;99.90
5578;DHT22;2811;51.900;10.734;2023-09-07T05:17:40;16.30;99.90
5578;DHT22;2811;51.900;10.734;2023-09-07T05:20:08;16.30;99.90
5578;DHT22;2811;51.900;10.734;2023-09-07T05:22:36;16.30;99.90
5578;DHT22;2811;51.900;10.734;2023-09-07T05:25:05;16.30;99.90
5578;DHT22;2811;51.900;10.734;2023-09-07T05:27:34;16.40;99.90
5578;DHT22;2811;51.900;10.734;2023-09-07T05:30:01;16.40;99.90
5578;DHT22;2811;51.900;10.734;2023-09-07T05:32:28;16.40;99.90
5578;DHT22;2811;51.900;10.734;2023-09-07T05:34:55;16.50;99.90
5578;DHT22;2811;51.900;10.734;2023-09-07T05:37:22;16.60;99.90
5578;DHT22;2811;51.900;10.734;2023-09-07T05:39:50;17.00;99.90
5578;DHT22;2811;51.900;10.734;2023-09-07T05:42:17;16.80;99.90
5578;DHT22;2811;51.900;10.734;2023-09-07T05:44:43;16.80;99.90
5578;DHT22;2811;51.900;10.734;2023-09-07T05:47:10;16.90;99.90
5578;DHT22;2811;51.900;10.734;2023-09-07T05:49:37;16.90;99.90
5578;DHT22;2811;51.900;10.734;2023-09-07T05:52:04;17.50;99.90
5578;DHT22;2811;51.900;10.734;2023-09-07T05:54:31;17.20;99.90
5578;DHT22;2811;51.900;10.734;2023-09-07T05:56:59;17.40;99.90
5578;DHT22;2811;51.900;10.734;2023-09-07T05:59:26;17.40;99.90
5578;DHT22;2811;51.900;10.734;2023-09-07T06:01:53;17.60;99.90
5578;DHT22;2811;51.900;10.734;2023-09-07T06:04:19;17.70;99.90
5578;DHT22;2811;51.900;10.734;2023-09-07T06:06:47;17.80;99.90
5578;DHT22;2811;51.900;10.734;2023-09-07T06:09:14;17.80;99.90
5578;DHT22;2811;51.900;10.734;2023-09-07T06:11:40;17.90;99.90
5578;DHT22;2811;51.900;10.734;2023-09-07T06:14:09;18.00;99.90
5578;DHT22;2811;51.900;10.734;2023-09-07T06:16:35;18.10;99.90
5578;DHT22;2811;51.900;10.734;2023-09-07T06:19:02;18.20;99.90
5578;DHT22;2811;51.900;10.734;2023-09-07T06:21:29;18.40;99.90
5578;DHT22;2811;51.900;10.734;2023-09-07T06:23:56;18.40;99.90
5578;DHT22;2811;51.900;10.734;2023-09-07T06:26:22;18.60;99.90
5578;DHT22;2811;51.900;10.734;2023-09-07T06:28:49;18.70;99.90
5578;DHT22;2811;51.900;10.734;2023-09-07T06:31:17;18.80;99.90
5578;DHT22;2811;51.900;10.734;2023-09-07T06:33:44;19.00;99.90
5578;DHT22;2811;51.900;10.734;2023-09-07T06:36:10;19.00;99.90
5578;DHT22;2811;51.900;10.734;2023-09-07T06:38:37;19.00;99.90
5578;DHT22;2811;51.900;10.734;2023-09-07T06:41:04;19.10;99.90
5578;DHT22;2811;51.900;10.734;2023-09-07T06:43:33;19.30;99.90
5578;DHT22;2811;51.900;10.734;2023-09-07T06:46:05;19.40;99.90
5578;DHT22;2811;51.900;10.734;2023-09-07T06:48:34;19.50;99.90
5578;DHT22;2811;51.900;10.734;2023-09-07T06:51:04;19.80;99.90
5578;DHT22;2811;51.900;10.734;2023-09-07T06:53:31;19.70;99.90
5578;DHT22;2811;51.900;10.734;2023-09-07T06:55:58;19.80;99.90
5578;DHT22;2811;51.900;10.734;2023-09-07T06:58:25;20.00;99.90
5578;DHT22;2811;51.900;10.734;2023-09-07T07:00:52;20.10;99.90
5578;DHT22;2811;51.900;10.734;2023-09-07T07:03:18;20.20;99.90
5578;DHT22;2811;51.900;10.734;2023-09-07T07:05:47;20.30;99.90
5578;DHT22;2811;51.900;10.734;2023-09-07T07:08:13;20.40;99.90
5578;DHT22;2811;51.900;10.734;2023-09-07T07:10:40;20.60;99.90
5578;DHT22;2811;51.900;10.734;2023-09-07T07:13:08;20.80;99.90
5578;DHT22;2811;51.900;10.734;2023-09-07T07:15:35;21.20;99.90
5578;DHT22;2811;51.900;10.734;2023-09-07T07:18:02;21.10;99.90
5578;DHT22;2811;51.900;10.734;2023-09-07T07:20:33;21.20;99.90
5578;DHT22;2811;51.900;10.734;2023-09-07T07:23:01;21.30;99.90
5578;DHT22;2811;51.900;10.734;2023-09-07T07:25:28;21.30;99.90
5578;DHT22;2811;51.900;10.734;2023-09-07T07:27:56;21.40;99.90
5578;DHT22;2811;51.900;10.734;2023-09-07T07:30:26;21.60;99.90
5578;DHT22;2811;51.900;10.734;2023-09-07T07:32:53;21.70;99.90
5578;DHT22;2811;51.900;10.734;2023-09-07T07:35:19;22.00;99.90
5578;DHT22;2811;51.900;10.734;2023-09-07T07:37:46;22.00;99.90
5578;DHT22;2811;51.900;10.734;2023-09-07T07:40:14;22.80;99.90
5578;DHT22;2811;51.900;10.734;2023-09-07T07:42:41;22.40;99.90
5578;DHT22;2811;51.900;10.734;2023-09-07T07:45:09;22.40;99.90
5578;DHT22;2811;51.900;10.734;2023-09-07T07:47:36;22.60;99.90
5578;DHT22;2811;51.900;10.734;2023-09-07T07:50:03;22.80;99.90
5578;DHT22;2811;51.900;10.734;2023-09-07T07:52:29;22.80;99.90
5578;DHT22;2811;51.900;10.734;2023-09-07T07:54:56;22.80;99.90
5578;DHT22;2811;51.900;10.734;2023-09-07T07:57:24;22.90;99.90
5578;DHT22;2811;51.900;10.734;2023-09-07T07:59:51;23.00;99.90
5578;DHT22;2811;51.900;10.734;2023-09-07T08:02:18;23.20;99.90
5578;DHT22;2811;51.900;10.734;2023-09-07T08:04:45;23.20;99.90
5578;DHT22;2811;51.900;10.734;2023-09-07T08:07:12;23.30;99.90
5578;DHT22;2811;51.900;10.734;2023-09-07T08:09:39;23.40;99.90
5578;DHT22;2811;51.900;10.734;2023-09-07T08:12:06;23.50;99.90
5578;DHT22;2811;51.900;10.734;2023-09-07T08:14:35;23.70;99.90
5578;DHT22;2811;51.900;10.734;2023-09-07T08:17:01;23.80;99.90
5578;DHT22;2811;51.900;10.734;2023-09-07T08:19:28;24.10;99.90
5578;DHT22;2811;51.900;10.734;2023-09-07T08:21:55;24.40;99.90
5578;DHT22;2811;51.900;10.734;2023-09-07T08:24:22;24.30;99.90
5578;DHT22;2811;51.900;10.734;2023-09-07T08:26:49;24.30;99.90
5578;DHT22;2811;51.900;10.734;2023-09-07T08:29:19;24.60;99.90
5578;DHT22;2811;51.900;10.734;2023-09-07T08:31:50;24.90;99.90
5578;DHT22;2811;51.900;10.734;2023-09-07T08:34:17;25.00;99.90
5578;DHT22;2811;51.900;10.734;2023-09-07T08:36:46;24.90;99.90
5578;DHT22;2811;51.900;10.734;2023-09-07T08:39:13;25.00;99.90
5578;DHT22;2811;51.900;10.734;2023-09-07T08:41:40;24.90;99.90
5578;DHT22;2811;51.900;10.734;2023-09-07T08:44:10;24.90;99.90
5578;DHT22;2811;51.900;10.734;2023-09-07T08:46:37;25.20;99.90
5578;DHT22;2811;51.900;10.734;2023-09-07T08:49:05;25.00;99.90
5578;DHT22;2811;51.900;10.734;2023-09-07T08:51:32;25.00;99.90
5578;DHT22;2811;51.900;10.734;2023-09-07T08:54:00;25.30;99.90
5578;DHT22;2811;51.900;10.734;2023-09-07T08:56:27;25.30;99.90
5578;DHT22;2811;51.900;10.734;2023-09-07T08:58:54;25.30;99.90
5578;DHT22;2811;51.900;10.734;2023-09-07T09:01:20;25.40;99.90
5578;DHT22;2811;51.900;10.734;2023-09-07T09:03:48;25.60;99.90
5578;DHT22;2811;51.900;10.734;2023-09-07T09:06:18;25.60;99.90
5578;DHT22;2811;51.900;10.734;2023-09-07T09:08:46;25.60;99.90
5578;DHT22;2811;51.900;10.734;2023-09-07T09:11:15;26.20;99.90
5578;DHT22;2811;51.900;10.734;2023-09-07T09:13:42;25.80;99.90
5578;DHT22;2811;51.900;10.734;2023-09-07T09:16:09;26.20;99.90
5578;DHT22;2811;51.900;10.734;2023-09-07T09:18:36;25.90;99.90
5578;DHT22;2811;51.900;10.734;2023-09-07T09:21:04;25.90;99.90
5578;DHT22;2811;51.900;10.734;2023-09-07T09:23:36;26.40;99.90
5578;DHT22;2811;51.900;10.734;2023-09-07T09:26:03;26.40;99.90
5578;DHT22;2811;51.900;10.734;2023-09-07T09:28:31;26.40;99.90
5578;DHT22;2811;51.900;10.734;2023-09-07T09:30:58;26.50;99.90
5578;DHT22;2811;51.900;10.734;2023-09-07T09:33:25;26.70;99.90
5578;DHT22;2811;51.900;10.734;2023-09-07T09:35:53;26.90;99.90
5578;DHT22;2811;51.900;10.734;2023-09-07T09:38:22;26.60;99.90
5578;DHT22;2811;51.900;10.734;2023-09-07T09:40:50;26.70;99.90
5578;DHT22;2811;51.900;10.734;2023-09-07T09:43:18;27.30;99.90
5578;DHT22;2811;51.900;10.734;2023-09-07T09:45:46;27.00;99.90
5578;DHT22;2811;51.900;10.734;2023-09-07T09:48:13;26.90;99.90
5578;DHT22;2811;51.900;10.734;2023-09-07T09:50:40;27.10;99.90
5578;DHT22;2811;51.900;10.734;2023-09-07T09:53:08;27.10;99.90
5578;DHT22;2811;51.900;10.734;2023-09-07T09:55:35;27.20;99.90
5578;DHT22;2811;51.900;10.734;2023-09-07T09:58:05;27.10;99.90
5578;DHT22;2811;51.900;10.734;2023-09-07T10:00:32;27.10;99.90
5578;DHT22;2811;51.900;10.734;2023-09-07T10:03:06;27.00;99.90
5578;DHT22;2811;51.900;10.734;2023-09-07T10:05:34;26.90;99.90
5578;DHT22;2811;51.900;10.734;2023-09-07T10:08:02;26.90;99.90
5578;DHT22;2811;51.900;10.734;2023-09-07T10:10:33;27.00;99.90
5578;DHT22;2811;51.900;10.734;2023-09-07T10:13:01;26.90;99.90
5578;DHT22;2811;51.900;10.734;2023-09-07T10:15:31;26.90;99.90
5578;DHT22;2811;51.900;10.734;2023-09-07T10:18:10;27.00;99.90
5578;DHT22;2811;51.900;10.734;2023-09-07T10:20:51;27.20;99.90
5578;DHT22;2811;51.900;10.734;2023-09-07T10:23:19;27.40;99.90
5578;DHT22;2811;51.900;10.734;2023-09-07T10:25:50;27.30;99.80
5578;DHT22;2811;51.900;10.734;2023-09-07T10:28:21;27.60;99.80
5578;DHT22;2811;51.900;10.734;2023-09-07T10:31:00;27.40;99.90
5578;DHT22;2811;51.900;10.734;2023-09-07T10:33:29;27.50;99.80
5578;DHT22;2811;51.900;10.734;2023-09-07T10:35:55;27.60;99.30
5578;DHT22;2811;51.900;10.734;2023-09-07T10:38:23;27.60;98.80
5578;DHT22;2811;51.900;10.734;2023-09-07T10:40:55;27.70;99.40
5578;DHT22;2811;51.900;10.734;2023-09-07T10:43:23;27.70;98.50
5578;DHT22;2811;51.900;10.734;2023-09-07T10:45:49;27.80;98.40
5578;DHT22;2811;51.900;10.734;2023-09-07T10:48:17;27.70;98.50
5578;DHT22;2811;51.900;10.734;2023-09-07T10:50:45;27.60;98.20
5578;DHT22;2811;51.900;10.734;2023-09-07T10:53:13;27.50;98.50
5578;DHT22;2811;51.900;10.734;2023-09-07T10:55:40;27.70;98.80
5578;DHT22;2811;51.900;10.734;2023-09-07T10:58:08;27.70;98.50
5578;DHT22;2811;51.900;10.734;2023-09-07T11:00:36;27.70;98.20
5578;DHT22;2811;51.900;10.734;2023-09-07T11:03:07;28.00;98.20
5578;DHT22;2811;51.900;10.734;2023-09-07T11:05:37;27.50;98.10
5578;DHT22;2811;51.900;10.734;2023-09-07T11:08:05;27.70;98.30
5578;DHT22;2811;51.900;10.734;2023-09-07T11:10:33;28.00;98.40
5578;DHT22;2811;51.900;10.734;2023-09-07T11:13:02;28.10;98.00
5578;DHT22;2811;51.900;10.734;2023-09-07T11:15:29;28.00;96.90
5578;DHT22;2811;51.900;10.734;2023-09-07T11:17:56;28.30;97.60
5578;DHT22;2811;51.900;10.734;2023-09-07T11:20:23;28.10;97.50
5578;DHT22;2811;51.900;10.734;2023-09-07T11:22:51;28.30;97.30
5578;DHT22;2811;51.900;10.734;2023-09-07T11:25:19;28.30;96.70
5578;DHT22;2811;51.900;10.734;2023-09-07T11:27:46;28.40;96.90
5578;DHT22;2811;51.900;10.734;2023-09-07T11:30:12;28.40;96.10
5578;DHT22;2811;51.900;10.734;2023-09-07T11:32:39;28.30;96.20
5578;DHT22;2811;51.900;10.734;2023-09-07T11:35:09;28.50;96.80
5578;DHT22;2811;51.900;10.734;2023-09-07T11:37:36;28.70;96.20
5578;DHT22;2811;51.900;10.734;2023-09-07T11:40:05;28.90;96.10
5578;DHT22;2811;51.900;10.734;2023-09-07T11:42:36;28.60;95.50
5578;DHT22;2811;51.900;10.734;2023-09-07T11:45:05;28.50;95.70
5578;DHT22;2811;51.900;10.734;2023-09-07T11:47:32;28.40;95.80
5578;DHT22;2811;51.900;10.734;2023-09-07T11:50:00;28.50;95.70
5578;DHT22;2811;51.900;10.734;2023-09-07T11:52:26;28.40;95.70
5578;DHT22;2811;51.900;10.734;2023-09-07T11:54:53;28.50;95.90
5578;DHT22;2811;51.900;10.734;2023-09-07T11:57:21;28.70;95.00
5578;DHT22;2811;51.900;10.734;2023-09-07T11:59:48;28.90;95.60
5578;DHT22;2811;51.900;10.734;2023-09-07T12:02:15;28.80;94.90
5578;DHT22;2811;51.900;10.734;2023-09-07T12:04:43;28.80;94.60
5578;DHT22;2811;51.900;10.734;2023-09-07T12:07:10;28.70;94.40
5578;DHT22;2811;51.900;10.734;2023-09-07T12:09:36;29.00;95.10
5578;DHT22;2811;51.900;10.734;2023-09-07T12:12:04;28.60;94.80
5578;DHT22;2811;51.900;10.734;2023-09-07T12:14:32;28.70;94.70
5578;DHT22;2811;51.900;10.734;2023-09-07T12:16:59;28.70;94.70
5578;DHT22;2811;51.900;10.734;2023-09-07T12:19:26;28.80;94.50
5578;DHT22;2811;51.900;10.734;2023-09-07T12:21:53;29.00;94.40
5578;DHT22;2811;51.900;10.734;2023-09-07T12:24:20;29.00;94.00
5578;DHT22;2811;51.900;10.734;2023-09-07T12:26:46;29.30;94.30
5578;DHT22;2811;51.900;10.734;2023-09-07T12:29:13;28.90;93.70
5578;DHT22;2811;51.900;10.734;2023-09-07T12:31:41;29.50;94.30
5578;DHT22;2811;51.900;10.734;2023-09-07T12:34:08;29.00;93.80
5578;DHT22;2811;51.900;10.734;2023-09-07T12:36:35;29.00;93.30
5578;DHT22;2811;51.900;10.734;2023-09-07T12:39:01;28.90;93.60
5578;DHT22;2811;51.900;10.734;2023-09-07T12:41:30;29.00;93.60
5578;DHT22;2811;51.900;10.734;2023-09-07T12:43:57;29.10;93.30
5578;DHT22;2811;51.900;10.734;2023-09-07T12:46:24;29.40;93.40
5578;DHT22;2811;51.900;10.734;2023-09-07T12:48:52;29.10;93.20
5578;DHT22;2811;51.900;10.734;2023-09-07T12:51:18;29.10;93.10
5578;DHT22;2811;51.900;10.734;2023-09-07T12:53:45;29.50;93.10
5578;DHT22;2811;51.900;10.734;2023-09-07T12:56:12;29.40;93.40
5578;DHT22;2811;51.900;10.734;2023-09-07T12:58:39;29.30;92.70
5578;DHT22;2811;51.900;10.734;2023-09-07T13:01:05;29.20;92.80
5578;DHT22;2811;51.900;10.734;2023-09-07T13:03:35;29.30;92.60
5578;DHT22;2811;51.900;10.734;2023-09-07T13:06:03;29.40;92.40
5578;DHT22;2811;51.900;10.734;2023-09-07T13:08:30;29.50;91.50
5578;DHT22;2811;51.900;10.734;2023-09-07T13:10:57;29.40;91.10
5578;DHT22;2811;51.900;10.734;2023-09-07T13:13:23;29.40;91.30
5578;DHT22;2811;51.900;10.734;2023-09-07T13:15:54;29.30;91.00
5578;DHT22;2811;51.900;10.734;2023-09-07T13:18:21;29.20;91.70
5578;DHT22;2811;51.900;10.734;2023-09-07T13:20:48;29.10;91.60
5578;DHT22;2811;51.900;10.734;2023-09-07T13:23:16;29.10;91.50
5578;DHT22;2811;51.900;10.734;2023-09-07T13:25:43;29.10;91.60
5578;DHT22;2811;51.900;10.734;2023-09-07T13:28:10;29.10;91.30
5578;DHT22;2811;51.900;10.734;2023-09-07T13:30:37;29.20;91.10
5578;DHT22;2811;51.900;10.734;2023-09-07T13:33:05;29.20;91.00
5578;DHT22;2811;51.900;10.734;2023-09-07T13:35:31;29.30;90.80
5578;DHT22;2811;51.900;10.734;2023-09-07T13:37:58;29.40;90.50
5578;DHT22;2811;51.900;10.734;2023-09-07T13:40:26;29.40;90.40
5578;DHT22;2811;51.900;10.734;2023-09-07T13:42:55;29.40;91.00
5578;DHT22;2811;51.900;10.734;2023-09-07T13:45:22;29.50;91.00
5578;DHT22;2811;51.900;10.734;2023-09-07T13:47:49;29.60;91.30
5578;DHT22;2811;51.900;10.734;2023-09-07T13:50:16;29.40;91.00
5578;DHT22;2811;51.900;10.734;2023-09-07T13:52:43;29.50;90.90
5578;DHT22;2811;51.900;10.734;2023-09-07T13:55:09;29.40;90.20
5578;DHT22;2811;51.900;10.734;2023-09-07T13:57:37;29.30;90.60
5578;DHT22;2811;51.900;10.734;2023-09-07T14:00:05;29.20;90.80
5578;DHT22;2811;51.900;10.734;2023-09-07T14:02:32;29.20;90.90
5578;DHT22;2811;51.900;10.734;2023-09-07T14:04:59;29.20;90.80
5578;DHT22;2811;51.900;10.734;2023-09-07T14:07:26;29.10;90.90
5578;DHT22;2811;51.900;10.734;2023-09-07T14:09:53;29.00;90.90
5578;DHT22;2811;51.900;10.734;2023-09-07T14:12:20;29.40;91.20
5578;DHT22;2811;51.900;10.734;2023-09-07T14:14:49;29.20;91.60
5578;DHT22;2811;51.900;10.734;2023-09-07T14:17:16;29.40;91.40
5578;DHT22;2811;51.900;10.734;2023-09-07T14:19:42;29.40;90.70
5578;DHT22;2811;51.900;10.734;2023-09-07T14:22:11;29.50;90.70
5578;DHT22;2811;51.900;10.734;2023-09-07T14:24:38;29.40;90.40
5578;DHT22;2811;51.900;10.734;2023-09-07T14:27:05;29.30;90.10
5578;DHT22;2811;51.900;10.734;2023-09-07T14:29:31;29.20;90.40
5578;DHT22;2811;51.900;10.734;2023-09-07T14:32:00;29.10;90.40
5578;DHT22;2811;51.900;10.734;2023-09-07T14:34:27;29.10;90.60
5578;DHT22;2811;51.900;10.734;2023-09-07T14:36:54;29.10;90.20
5578;DHT22;2811;51.900;10.734;2023-09-07T14:39:21;29.20;90.60
5578;DHT22;2811;51.900;10.734;2023-09-07T14:41:49;29.70;90.70
5578;DHT22;2811;51.900;10.734;2023-09-07T14:44:16;29.30;90.90
5578;DHT22;2811;51.900;10.734;2023-09-07T14:46:43;29.40;90.60
5578;DHT22;2811;51.900;10.734;2023-09-07T14:49:11;29.30;90.80
5578;DHT22;2811;51.900;10.734;2023-09-07T14:51:37;29.30;90.20
5578;DHT22;2811;51.900;10.734;2023-09-07T14:54:04;29.20;89.80
5578;DHT22;2811;51.900;10.734;2023-09-07T14:56:31;29.20;90.40
5578;DHT22;2811;51.900;10.734;2023-09-07T14:59:00;29.10;90.30
5578;DHT22;2811;51.900;10.734;2023-09-07T15:01:27;29.10;90.50
5578;DHT22;2811;51.900;10.734;2023-09-07T15:03:54;29.10;90.70
5578;DHT22;2811;51.900;10.734;2023-09-07T15:06:22;29.20;90.90
5578;DHT22;2811;51.900;10.734;2023-09-07T15:08:49;29.30;90.30
5578;DHT22;2811;51.900;10.734;2023-09-07T15:11:16;29.20;90.00
5578;DHT22;2811;51.900;10.734;2023-09-07T15:13:43;29.00;90.60
5578;DHT22;2811;51.900;10.734;2023-09-07T15:16:11;29.00;90.70
5578;DHT22;2811;51.900;10.734;2023-09-07T15:18:37;28.90;91.20
5578;DHT22;2811;51.900;10.734;2023-09-07T15:21:04;28.90;91.40
5578;DHT22;2811;51.900;10.734;2023-09-07T15:23:32;29.30;90.90
5578;DHT22;2811;51.900;10.734;2023-09-07T15:26:00;28.70;90.40
5578;DHT22;2811;51.900;10.734;2023-09-07T15:28:26;28.70;90.80
5578;DHT22;2811;51.900;10.734;2023-09-07T15:30:53;28.70;90.90
5578;DHT22;2811;51.900;10.734;2023-09-07T15:33:21;28.70;90.80
5578;DHT22;2811;51.900;10.734;2023-09-07T15:35:48;28.60;90.50
5578;DHT22;2811;51.900;10.734;2023-09-07T15:38:14;28.90;91.10
5578;DHT22;2811;51.900;10.734;2023-09-07T15:40:42;28.40;90.60
5578;DHT22;2811;51.900;10.734;2023-09-07T15:43:10;28.30;91.00
5578;DHT22;2811;51.900;10.734;2023-09-07T15:45:37;28.20;91.50